createdAt,value
2023-02-03T00:00:32.582Z,0.00
2023-02-03T00:01:32.686Z,0.00
2023-02-03T00:02:32.785Z,0.00
2023-02-03T00:03:32.958Z,0.00
2023-02-03T00:04:33.001Z,0.00
2023-02-03T00:05:33.141Z,0.00
2023-02-03T00:06:33.213Z,0.00
2023-02-03T00:07:33.306Z,0.00
2023-02-03T00:08:33.429Z,0.00
2023-02-03T00:09:33.570Z,0.00
2023-02-03T00:10:33.639Z,0.00
2023-02-03T00:11:33.737Z,0.00
2023-02-03T00:12:33.852Z,0.00
2023-02-03T00:13:34.060Z,0.00
2023-02-03T00:14:34.093Z,0.00
2023-02-03T00:15:34.193Z,0.00
2023-02-03T00:16:34.381Z,0.00
2023-02-03T00:17:34.419Z,0.00
2023-02-03T00:18:34.570Z,0.00
2023-02-03T00:19:34.734Z,0.00
2023-02-03T00:20:34.790Z,0.00
2023-02-03T00:21:34.885Z,0.00
2023-02-03T00:22:34.985Z,0.00
2023-02-03T00:23:35.103Z,0.00
2023-02-03T00:24:35.251Z,0.00
2023-02-03T00:25:35.347Z,0.00
2023-02-03T00:26:35.399Z,0.00
2023-02-03T00:27:35.631Z,0.00
2023-02-03T00:28:35.640Z,0.00
2023-02-03T00:29:35.796Z,0.00
2023-02-03T00:30:35.869Z,0.00
2023-02-03T00:31:36.141Z,0.00
2023-02-03T00:32:36.127Z,0.00
2023-02-03T00:33:36.177Z,0.00
2023-02-03T00:34:36.318Z,0.00
2023-02-03T00:35:36.432Z,0.00
2023-02-03T00:36:36.595Z,0.00
2023-02-03T00:37:36.655Z,0.00
2023-02-03T00:38:36.898Z,0.00
2023-02-03T00:39:36.875Z,0.00
2023-02-03T00:40:37.012Z,0.00
2023-02-03T00:41:37.092Z,0.00
2023-02-03T00:42:37.364Z,0.00
2023-02-03T00:43:37.304Z,0.00
2023-02-03T00:44:37.522Z,0.00
2023-02-03T00:45:37.567Z,0.00
2023-02-03T00:46:37.610Z,0.00
2023-02-03T00:47:37.726Z,0.00
2023-02-03T00:48:37.836Z,0.00
2023-02-03T00:49:38.042Z,0.00
2023-02-03T00:50:38.065Z,0.00
2023-02-03T00:51:38.175Z,0.00
2023-02-03T00:52:38.287Z,0.00
2023-02-03T00:53:38.411Z,0.00
2023-02-03T00:54:38.633Z,0.00
2023-02-03T00:55:38.632Z,0.00
2023-02-03T00:56:38.800Z,0.00
2023-02-03T00:57:38.839Z,0.00
2023-02-03T00:58:38.943Z,0.00
2023-02-03T00:59:39.156Z,0.00
2023-02-03T01:00:39.217Z,0.00
2023-02-03T01:01:39.335Z,0.00
2023-02-03T01:02:39.516Z,0.00
2023-02-03T01:03:39.555Z,0.00
2023-02-03T01:04:39.707Z,0.00
2023-02-03T01:05:39.830Z,0.00
2023-02-03T01:06:39.934Z,0.00
2023-02-03T01:07:40.041Z,0.00
2023-02-03T01:08:40.149Z,0.00
2023-02-03T01:09:40.292Z,0.00
2023-02-03T01:10:40.369Z,0.00
2023-02-03T01:11:40.473Z,0.00
2023-02-03T01:12:40.596Z,0.00
2023-02-03T01:13:40.688Z,0.00
2023-02-03T01:14:40.918Z,0.00
2023-02-03T01:15:40.969Z,0.00
2023-02-03T01:16:41.057Z,0.00
2023-02-03T01:17:41.134Z,0.00
2023-02-03T01:18:41.246Z,0.00
2023-02-03T01:19:41.550Z,0.00
2023-02-03T01:20:41.455Z,0.00
2023-02-03T01:21:41.546Z,0.00
2023-02-03T01:22:41.664Z,0.00
2023-02-03T01:23:41.777Z,0.00
2023-02-03T01:24:41.956Z,0.00
2023-02-03T01:25:42.093Z,0.00
2023-02-03T01:26:42.111Z,0.00
2023-02-03T01:27:42.249Z,0.00
2023-02-03T01:28:42.371Z,0.00
2023-02-03T01:29:42.435Z,0.00
2023-02-03T01:30:42.730Z,0.00
2023-02-03T01:31:42.890Z,0.00
2023-02-03T01:32:42.805Z,0.00
2023-02-03T01:33:42.910Z,0.00
2023-02-03T01:34:43.080Z,0.00
2023-02-03T01:35:43.146Z,0.00
2023-02-03T01:36:43.362Z,0.00
2023-02-03T01:37:43.364Z,0.00
2023-02-03T01:38:43.461Z,0.00
2023-02-03T01:39:43.572Z,0.00
2023-02-03T01:40:43.684Z,0.00
2023-02-03T01:41:43.843Z,0.00
2023-02-03T01:42:43.892Z,0.00
2023-02-03T01:43:44.004Z,0.00
2023-02-03T01:44:44.114Z,0.00
2023-02-03T01:45:44.271Z,0.00
2023-02-03T01:46:44.468Z,0.00
2023-02-03T01:47:44.482Z,0.00
2023-02-03T01:48:44.588Z,0.00
2023-02-03T01:49:44.699Z,0.00
2023-02-03T01:50:44.810Z,0.00
2023-02-03T01:51:44.968Z,0.00
2023-02-03T01:52:45.195Z,0.00
2023-02-03T01:53:45.149Z,0.00
2023-02-03T01:54:45.407Z,0.00
2023-02-03T01:55:45.422Z,0.00
2023-02-03T01:56:45.567Z,0.00
2023-02-03T01:57:45.590Z,0.00
2023-02-03T01:58:45.676Z,0.00
2023-02-03T01:59:45.805Z,0.00
2023-02-03T02:00:46.055Z,0.00
2023-02-03T02:01:46.345Z,0.00
2023-02-03T02:02:46.175Z,0.00
2023-02-03T02:03:46.257Z,0.00
2023-02-03T02:04:46.353Z,0.00
2023-02-03T02:05:46.477Z,0.00
2023-02-03T02:06:46.575Z,0.00
2023-02-03T02:07:46.684Z,0.00
2023-02-03T02:08:46.805Z,0.00
2023-02-03T02:09:46.933Z,0.00
2023-02-03T02:10:47.057Z,0.00
2023-02-03T02:11:47.245Z,0.00
2023-02-03T02:12:47.261Z,0.00
2023-02-03T02:13:47.363Z,0.00
2023-02-03T02:14:47.466Z,0.00
2023-02-03T02:15:47.651Z,0.00
2023-02-03T02:16:47.783Z,0.00
2023-02-03T02:17:47.784Z,0.00
2023-02-03T02:18:47.906Z,0.00
2023-02-03T02:19:48.043Z,0.00
2023-02-03T02:20:48.112Z,0.00
2023-02-03T02:21:48.345Z,0.00
2023-02-03T02:22:48.332Z,0.00
2023-02-03T02:23:48.519Z,0.00
2023-02-03T02:24:48.574Z,0.00
2023-02-03T02:25:48.644Z,0.00
2023-02-03T02:26:48.811Z,0.00
2023-02-03T02:27:48.976Z,0.00
2023-02-03T02:28:48.990Z,0.00
2023-02-03T02:29:49.140Z,0.00
2023-02-03T02:30:49.473Z,0.00
2023-02-03T02:31:49.546Z,0.00
2023-02-03T02:32:49.447Z,0.00
2023-02-03T02:33:49.581Z,0.00
2023-02-03T02:34:49.684Z,0.00
2023-02-03T02:35:49.811Z,0.00
2023-02-03T02:36:49.996Z,0.00
2023-02-03T02:37:50.077Z,0.00
2023-02-03T02:38:51.127Z,0.00
2023-02-03T02:39:50.228Z,0.00
2023-02-03T02:40:50.346Z,0.00
2023-02-03T02:41:50.462Z,0.00
2023-02-03T02:42:51.628Z,0.00
2023-02-03T02:43:50.694Z,0.00
2023-02-03T02:44:50.791Z,0.00
2023-02-03T02:45:50.894Z,0.00
2023-02-03T02:46:50.987Z,0.00
2023-02-03T02:47:51.273Z,0.00
2023-02-03T02:48:51.336Z,0.00
2023-02-03T02:49:51.407Z,0.00
2023-02-03T02:50:51.471Z,0.00
2023-02-03T02:51:51.576Z,0.00
2023-02-03T02:52:51.680Z,0.00
2023-02-03T02:53:51.805Z,0.00
2023-02-03T02:54:51.925Z,0.00
2023-02-03T02:55:52.026Z,0.00
2023-02-03T02:56:52.208Z,0.00
2023-02-03T02:57:52.254Z,0.00
2023-02-03T02:58:52.419Z,0.00
2023-02-03T02:59:52.524Z,0.00
2023-02-03T03:00:52.592Z,0.00
2023-02-03T03:01:52.750Z,0.00
2023-02-03T03:02:52.789Z,0.00
2023-02-03T03:03:52.914Z,0.00
2023-02-03T03:04:53.104Z,0.00
2023-02-03T03:05:53.118Z,0.00
2023-02-03T03:06:53.213Z,0.00
2023-02-03T03:07:53.334Z,0.00
2023-02-03T03:08:53.424Z,0.00
2023-02-03T03:09:53.710Z,0.00
2023-02-03T03:10:53.653Z,0.00
2023-02-03T03:11:53.768Z,0.00
2023-02-03T03:12:53.896Z,0.00
2023-02-03T03:13:53.995Z,0.00
2023-02-03T03:14:54.240Z,0.00
2023-02-03T03:15:54.293Z,0.00
2023-02-03T03:16:54.420Z,0.00
2023-02-03T03:17:54.450Z,0.00
2023-02-03T03:18:54.549Z,0.00
2023-02-03T03:19:54.840Z,0.00
2023-02-03T03:20:54.780Z,0.00
2023-02-03T03:21:54.887Z,0.00
2023-02-03T03:22:54.988Z,0.00
2023-02-03T03:23:55.117Z,0.00
2023-02-03T03:24:55.317Z,0.00
2023-02-03T03:25:55.347Z,0.00
2023-02-03T03:26:55.437Z,0.00
2023-02-03T03:27:55.617Z,0.00
2023-02-03T03:28:55.657Z,0.00
2023-02-03T03:29:55.840Z,0.00
2023-02-03T03:30:56.044Z,0.00
2023-02-03T03:31:56.100Z,0.00
2023-02-03T03:32:56.150Z,0.00
2023-02-03T03:33:56.336Z,0.00
2023-02-03T03:34:57.439Z,0.00
2023-02-03T03:35:56.497Z,0.00
2023-02-03T03:36:56.644Z,0.00
2023-02-03T03:37:56.713Z,0.00
2023-02-03T03:38:56.851Z,0.00
2023-02-03T03:39:57.145Z,0.00
2023-02-03T03:40:57.060Z,0.00
2023-02-03T03:41:57.242Z,0.00
2023-02-03T03:42:57.265Z,0.00
2023-02-03T03:43:57.375Z,0.00
2023-02-03T03:44:57.541Z,0.00
2023-02-03T03:45:57.589Z,0.00
2023-02-03T03:46:57.709Z,0.00
2023-02-03T03:47:57.840Z,0.00
2023-02-03T03:48:57.938Z,0.00
2023-02-03T03:49:58.121Z,0.00
2023-02-03T03:50:58.168Z,0.00
2023-02-03T03:51:58.250Z,0.00
2023-02-03T03:52:58.346Z,0.00
2023-02-03T03:53:58.461Z,0.00
2023-02-03T03:54:58.689Z,0.00
2023-02-03T03:55:58.707Z,0.00
2023-02-03T03:56:58.870Z,0.00
2023-02-03T03:57:58.954Z,0.00
2023-02-03T03:58:59.112Z,0.00
2023-02-03T03:59:59.289Z,0.00
2023-02-03T04:00:59.279Z,0.00
2023-02-03T04:01:59.478Z,0.00
2023-02-03T04:02:59.573Z,0.00
2023-02-03T04:03:59.588Z,0.00
2023-02-03T04:04:59.729Z,0.00
2023-02-03T04:05:59.830Z,0.00
2023-02-03T04:06:59.957Z,0.00
2023-02-03T04:08:00.089Z,0.00
2023-02-03T04:09:00.218Z,0.00
2023-02-03T04:10:00.404Z,0.00
2023-02-03T04:11:00.415Z,0.00
2023-02-03T04:12:00.526Z,0.00
2023-02-03T04:13:00.647Z,0.00
2023-02-03T04:14:00.747Z,0.00
2023-02-03T04:15:01.025Z,0.00
2023-02-03T04:16:01.015Z,0.00
2023-02-03T04:17:01.185Z,0.00
2023-02-03T04:18:01.276Z,0.00
2023-02-03T04:19:01.327Z,0.00
2023-02-03T04:20:01.521Z,0.00
2023-02-03T04:21:01.567Z,0.00
2023-02-03T04:22:01.678Z,0.00
2023-02-03T04:23:01.782Z,0.00
2023-02-03T04:24:01.892Z,0.00
2023-02-03T04:25:02.016Z,0.00
2023-02-03T04:26:02.135Z,0.00
2023-02-03T04:27:04.865Z,0.00
2023-02-03T04:28:02.394Z,0.00
2023-02-03T04:29:02.462Z,0.00
2023-02-03T04:30:02.602Z,0.00
2023-02-03T04:31:02.774Z,0.00
2023-02-03T04:32:02.769Z,0.00
2023-02-03T04:33:02.984Z,0.00
2023-02-03T04:34:03.029Z,0.00
2023-02-03T04:35:03.099Z,0.00
2023-02-03T04:36:03.209Z,0.00
2023-02-03T04:37:03.393Z,0.00
2023-02-03T04:38:03.555Z,0.00
2023-02-03T04:39:03.649Z,0.00
2023-02-03T04:40:03.684Z,0.00
2023-02-03T04:41:03.790Z,0.00
2023-02-03T04:42:03.899Z,0.00
2023-02-03T04:43:04.108Z,0.00
2023-02-03T04:44:04.194Z,0.00
2023-02-03T04:45:04.235Z,0.00
2023-02-03T04:46:04.441Z,0.00
2023-02-03T04:47:04.492Z,0.00
2023-02-03T04:48:04.621Z,0.00
2023-02-03T04:49:04.755Z,0.00
2023-02-03T04:50:04.808Z,0.00
2023-02-03T04:51:04.965Z,0.00
2023-02-03T04:52:05.017Z,0.00
2023-02-03T04:53:05.137Z,0.00
2023-02-03T04:54:05.247Z,0.00
2023-02-03T04:55:05.365Z,0.00
2023-02-03T04:56:05.571Z,0.00
2023-02-03T04:57:05.576Z,0.00
2023-02-03T04:58:05.701Z,0.00
2023-02-03T04:59:05.825Z,0.00
2023-02-03T05:00:05.928Z,0.00
2023-02-03T05:01:06.209Z,0.00
2023-02-03T05:02:06.157Z,0.00
2023-02-03T05:03:06.422Z,0.00
2023-02-03T05:04:06.370Z,0.00
2023-02-03T05:05:06.476Z,0.00
2023-02-03T05:06:06.714Z,0.00
2023-02-03T05:07:06.722Z,0.00
2023-02-03T05:08:06.847Z,0.00
2023-02-03T05:09:06.963Z,0.00
2023-02-03T05:10:07.121Z,0.00
2023-02-03T05:11:07.295Z,0.00
2023-02-03T05:12:07.400Z,0.00
2023-02-03T05:13:07.421Z,0.00
2023-02-03T05:14:07.510Z,0.00
2023-02-03T05:15:07.622Z,0.00
2023-02-03T05:16:07.966Z,0.00
2023-02-03T05:17:07.833Z,0.00
2023-02-03T05:18:07.959Z,0.00
2023-02-03T05:19:08.062Z,0.00
2023-02-03T05:20:08.199Z,0.00
2023-02-03T05:21:08.330Z,0.00
2023-02-03T05:22:08.432Z,0.00
2023-02-03T05:23:08.550Z,0.00
2023-02-03T05:24:08.645Z,0.00
2023-02-03T05:25:08.749Z,0.00
2023-02-03T05:26:08.941Z,0.00
2023-02-03T05:27:08.981Z,0.00
2023-02-03T05:28:09.142Z,0.00
2023-02-03T05:29:09.225Z,0.00
2023-02-03T05:30:09.334Z,0.00
2023-02-03T05:31:09.508Z,0.00
2023-02-03T05:32:09.667Z,0.00
2023-02-03T05:33:09.650Z,0.00
2023-02-03T05:34:09.810Z,0.00
2023-02-03T05:35:09.920Z,0.00
2023-02-03T05:36:10.027Z,0.00
2023-02-03T05:37:10.189Z,0.00
2023-02-03T05:38:10.258Z,0.00
2023-02-03T05:39:10.352Z,0.00
2023-02-03T05:40:10.459Z,0.00
2023-02-03T05:41:10.628Z,0.00
2023-02-03T05:42:10.664Z,0.00
2023-02-03T05:43:10.775Z,0.00
2023-02-03T05:44:10.915Z,0.00
2023-02-03T05:45:10.997Z,0.00
2023-02-03T05:46:11.211Z,0.00
2023-02-03T05:47:11.223Z,0.00
2023-02-03T05:48:11.324Z,0.00
2023-02-03T05:49:11.460Z,0.00
2023-02-03T05:50:11.571Z,0.00
2023-02-03T05:51:11.802Z,0.00
2023-02-03T05:52:11.829Z,0.00
2023-02-03T05:53:11.891Z,0.00
2023-02-03T05:54:11.999Z,0.00
2023-02-03T05:55:12.115Z,0.00
2023-02-03T05:56:12.274Z,0.00
2023-02-03T05:57:12.357Z,0.00
2023-02-03T05:58:12.451Z,0.00
2023-02-03T05:59:12.585Z,0.00
2023-02-03T06:00:12.684Z,0.00
2023-02-03T06:01:12.800Z,0.00
2023-02-03T06:02:12.908Z,0.00
2023-02-03T06:03:13.085Z,0.00
2023-02-03T06:04:13.163Z,0.00
2023-02-03T06:05:13.227Z,0.00
2023-02-03T06:06:13.333Z,0.00
2023-02-03T06:07:13.442Z,0.00
2023-02-03T06:08:13.579Z,0.00
2023-02-03T06:09:13.651Z,0.00
2023-02-03T06:10:13.760Z,0.00
2023-02-03T06:11:13.941Z,0.00
2023-02-03T06:12:14.007Z,0.00
2023-02-03T06:13:14.106Z,0.00
2023-02-03T06:14:14.243Z,0.00
2023-02-03T06:15:14.339Z,0.00
2023-02-03T06:16:14.558Z,0.00
2023-02-03T06:17:14.574Z,0.00
2023-02-03T06:18:14.689Z,0.00
2023-02-03T06:19:16.336Z,0.00
2023-02-03T06:20:14.900Z,0.00
2023-02-03T06:21:15.089Z,0.00
2023-02-03T06:22:15.143Z,0.00
2023-02-03T06:23:15.244Z,0.00
2023-02-03T06:24:15.363Z,0.00
2023-02-03T06:25:15.481Z,0.00
2023-02-03T06:26:15.603Z,0.00
2023-02-03T06:27:15.705Z,0.00
2023-02-03T06:28:15.864Z,0.00
2023-02-03T06:29:15.912Z,0.00
2023-02-03T06:30:16.015Z,0.00
2023-02-03T06:31:16.287Z,0.00
2023-02-03T06:32:16.323Z,0.00
2023-02-03T06:33:16.402Z,0.00
2023-02-03T06:34:16.481Z,0.00
2023-02-03T06:35:16.601Z,0.00
2023-02-03T06:36:16.729Z,0.00
2023-02-03T06:37:16.849Z,0.00
2023-02-03T06:38:16.957Z,0.00
2023-02-03T06:39:17.068Z,0.00
2023-02-03T06:40:17.179Z,0.00
2023-02-03T06:41:17.446Z,0.00
2023-02-03T06:42:17.385Z,0.00
2023-02-03T06:43:17.528Z,0.00
2023-02-03T06:44:17.706Z,0.00
2023-02-03T06:45:17.759Z,0.00
2023-02-03T06:46:17.973Z,0.00
2023-02-03T06:47:18.057Z,0.00
2023-02-03T06:48:18.195Z,0.00
2023-02-03T06:49:18.198Z,0.00
2023-02-03T06:50:18.309Z,0.00
2023-02-03T06:51:18.413Z,0.00
2023-02-03T06:52:18.679Z,0.00
2023-02-03T06:53:18.647Z,0.00
2023-02-03T06:54:18.740Z,0.00
2023-02-03T06:55:18.858Z,0.00
2023-02-03T06:56:18.946Z,0.00
2023-02-03T06:57:19.186Z,0.00
2023-02-03T06:58:19.172Z,0.00
2023-02-03T06:59:19.294Z,0.00
2023-02-03T07:00:19.623Z,0.00
2023-02-03T07:01:19.526Z,0.00
2023-02-03T07:02:19.650Z,0.00
2023-02-03T07:03:19.723Z,0.00
2023-02-03T07:04:19.826Z,0.00
2023-02-03T07:05:19.953Z,0.00
2023-02-03T07:06:20.068Z,0.00
2023-02-03T07:07:20.336Z,0.00
2023-02-03T07:08:20.300Z,0.00
2023-02-03T07:09:20.427Z,0.00
2023-02-03T07:10:20.531Z,5.62
2023-02-03T07:11:20.660Z,5.62
2023-02-03T07:12:20.877Z,5.62
2023-02-03T07:13:20.881Z,5.62
2023-02-03T07:14:20.986Z,5.62
2023-02-03T07:15:21.095Z,5.62
2023-02-03T07:16:21.303Z,5.62
2023-02-03T07:17:21.651Z,11.25
2023-02-03T07:18:45.621Z,11.25
2023-02-03T07:19:22.583Z,11.25
2023-02-03T07:20:21.721Z,11.25
2023-02-03T07:21:21.794Z,16.88
2023-02-03T07:22:21.951Z,16.88
2023-02-03T07:23:22.018Z,16.88
2023-02-03T07:24:22.140Z,16.88
2023-02-03T07:25:23.344Z,16.88
2023-02-03T07:26:22.380Z,22.50
2023-02-03T07:27:22.539Z,22.50
2023-02-03T07:28:22.614Z,22.50
2023-02-03T07:29:22.723Z,22.50
2023-02-03T07:30:22.814Z,28.12
2023-02-03T07:31:23.026Z,28.12
2023-02-03T07:32:23.095Z,28.12
2023-02-03T07:33:23.187Z,28.12
2023-02-03T07:34:23.239Z,33.75
2023-02-03T07:35:23.406Z,33.75
2023-02-03T07:36:23.476Z,33.75
2023-02-03T07:37:23.716Z,33.75
2023-02-03T07:38:23.694Z,39.38
2023-02-03T07:39:23.793Z,39.38
2023-02-03T07:40:23.965Z,45.00
2023-02-03T07:41:24.009Z,39.38
2023-02-03T07:42:24.149Z,39.38
2023-02-03T07:43:24.210Z,45.00
2023-02-03T07:44:24.323Z,39.38
2023-02-03T07:45:24.454Z,39.38
2023-02-03T07:46:24.611Z,39.38
2023-02-03T07:47:24.769Z,39.38
2023-02-03T07:48:24.784Z,45.00
2023-02-03T07:49:24.900Z,45.00
2023-02-03T07:50:25.165Z,50.62
2023-02-03T07:51:25.098Z,56.25
2023-02-03T07:52:25.385Z,61.88
2023-02-03T07:53:25.336Z,61.88
2023-02-03T07:54:25.447Z,61.88
2023-02-03T07:55:25.590Z,50.62
2023-02-03T07:56:25.779Z,50.62
2023-02-03T07:57:25.783Z,50.62
2023-02-03T07:58:25.920Z,50.62
2023-02-03T07:59:26.023Z,50.62
2023-02-03T08:00:26.491Z,56.25
2023-02-03T08:01:26.375Z,50.62
2023-02-03T08:02:26.357Z,50.62
2023-02-03T08:03:26.450Z,45.00
2023-02-03T08:04:26.565Z,39.38
2023-02-03T08:05:26.691Z,39.38
2023-02-03T08:06:26.763Z,33.75
2023-02-03T08:07:27.049Z,39.38
2023-02-03T08:08:26.985Z,45.00
2023-02-03T08:09:27.087Z,45.00
2023-02-03T08:10:27.461Z,39.38
2023-02-03T08:11:27.338Z,39.38
2023-02-03T08:12:27.647Z,33.75
2023-02-03T08:13:27.532Z,28.12
2023-02-03T08:14:27.627Z,33.75
2023-02-03T08:15:27.789Z,28.12
2023-02-03T08:16:27.877Z,28.12
2023-02-03T08:17:28.033Z,28.12
2023-02-03T08:18:28.560Z,28.12
2023-02-03T08:19:28.189Z,28.12
2023-02-03T08:20:28.528Z,28.12
2023-02-03T08:21:28.454Z,28.12
2023-02-03T08:22:28.730Z,28.12
2023-02-03T08:23:28.686Z,33.75
2023-02-03T08:24:28.783Z,33.75
2023-02-03T08:25:28.892Z,39.38
2023-02-03T08:26:29.015Z,50.62
2023-02-03T08:27:29.213Z,50.62
2023-02-03T08:28:29.215Z,50.62
2023-02-03T08:29:29.323Z,50.62
2023-02-03T08:30:30.001Z,50.62
2023-02-03T08:31:29.714Z,50.62
2023-02-03T08:32:29.766Z,56.25
2023-02-03T08:33:29.786Z,61.88
2023-02-03T08:34:29.876Z,61.88
2023-02-03T08:35:30.051Z,67.50
2023-02-03T08:36:30.217Z,67.50
2023-02-03T08:37:30.253Z,78.75
2023-02-03T08:38:30.415Z,73.12
2023-02-03T08:39:30.480Z,67.50
2023-02-03T08:40:30.901Z,67.50
2023-02-03T08:41:30.720Z,73.12
2023-02-03T08:42:30.824Z,84.38
2023-02-03T08:43:30.923Z,95.62
2023-02-03T08:44:31.038Z,101.25
2023-02-03T08:45:31.164Z,101.25
2023-02-03T08:46:31.331Z,106.88
2023-02-03T08:47:31.349Z,112.50
2023-02-03T08:48:31.454Z,90.00
2023-02-03T08:49:31.586Z,84.38
2023-02-03T08:50:31.899Z,78.75
2023-02-03T08:51:31.856Z,73.12
2023-02-03T08:52:31.933Z,73.12
2023-02-03T08:53:32.083Z,67.50
2023-02-03T08:54:32.121Z,61.88
2023-02-03T08:55:32.257Z,56.25
2023-02-03T08:56:32.366Z,50.62
2023-02-03T08:57:32.449Z,56.25
2023-02-03T08:58:32.643Z,56.25
2023-02-03T08:59:32.689Z,67.50
2023-02-03T09:00:32.797Z,67.50
2023-02-03T09:01:32.913Z,67.50
2023-02-03T09:02:33.027Z,61.88
2023-02-03T09:03:33.202Z,56.25
2023-02-03T09:04:33.348Z,61.88
2023-02-03T09:05:33.384Z,61.88
2023-02-03T09:06:33.473Z,67.50
2023-02-03T09:07:33.595Z,78.75
2023-02-03T09:08:33.745Z,90.00
2023-02-03T09:09:33.842Z,101.25
2023-02-03T09:10:33.936Z,95.62
2023-02-03T09:11:34.063Z,101.25
2023-02-03T09:12:34.252Z,95.62
2023-02-03T09:13:34.298Z,90.00
2023-02-03T09:14:34.394Z,84.38
2023-02-03T09:15:34.502Z,78.75
2023-02-03T09:16:34.663Z,73.12
2023-02-03T09:17:34.769Z,73.12
2023-02-03T09:18:34.931Z,84.38
2023-02-03T09:19:36.522Z,78.75
2023-02-03T09:20:35.086Z,90.00
2023-02-03T09:21:39.268Z,84.38
2023-02-03T09:22:36.295Z,90.00
2023-02-03T09:23:35.498Z,95.62
2023-02-03T09:24:35.565Z,84.38
2023-02-03T09:25:35.681Z,90.00
2023-02-03T09:26:35.800Z,90.00
2023-02-03T09:27:35.887Z,101.25
2023-02-03T09:28:36.122Z,106.88
2023-02-03T09:29:36.126Z,112.50
2023-02-03T09:30:36.280Z,112.50
2023-02-03T09:31:36.392Z,106.88
2023-02-03T09:32:36.457Z,112.50
2023-02-03T09:33:36.654Z,106.88
2023-02-03T09:34:36.662Z,112.50
2023-02-03T09:35:36.808Z,112.50
2023-02-03T09:36:36.911Z,106.88
2023-02-03T09:37:37.112Z,112.50
2023-02-03T09:38:37.170Z,123.75
2023-02-03T09:39:37.218Z,123.75
2023-02-03T09:40:37.385Z,101.25
2023-02-03T09:41:37.489Z,118.12
2023-02-03T09:42:37.639Z,112.50
2023-02-03T09:43:37.781Z,112.50
2023-02-03T09:44:37.812Z,112.50
2023-02-03T09:45:37.981Z,118.12
2023-02-03T09:46:38.053Z,106.88
2023-02-03T09:47:38.142Z,101.25
2023-02-03T09:48:38.304Z,118.12
2023-02-03T09:49:38.495Z,118.12
2023-02-03T09:50:38.533Z,112.50
2023-02-03T09:51:38.719Z,112.50
2023-02-03T09:52:40.429Z,112.50
2023-02-03T09:53:38.939Z,106.88
2023-02-03T09:54:39.148Z,101.25
2023-02-03T09:55:39.151Z,95.62
2023-02-03T09:56:39.282Z,106.88
2023-02-03T09:57:39.413Z,106.88
2023-02-03T09:58:39.536Z,118.12
2023-02-03T09:59:39.678Z,129.38
2023-02-03T10:00:39.771Z,101.25
2023-02-03T10:01:39.898Z,112.50
2023-02-03T10:02:40.068Z,129.38
2023-02-03T10:03:40.085Z,112.50
2023-02-03T10:04:40.239Z,123.75
2023-02-03T10:05:40.337Z,118.12
2023-02-03T10:06:40.462Z,140.62
2023-02-03T10:07:40.559Z,151.88
2023-02-03T10:08:40.673Z,151.88
2023-02-03T10:09:40.832Z,151.88
2023-02-03T10:10:40.867Z,146.25
2023-02-03T10:11:41.025Z,163.12
2023-02-03T10:12:41.213Z,174.38
2023-02-03T10:13:41.251Z,157.50
2023-02-03T10:14:41.445Z,146.25
2023-02-03T10:15:41.437Z,180.00
2023-02-03T10:16:41.662Z,157.50
2023-02-03T10:17:41.644Z,146.25
2023-02-03T10:18:41.795Z,157.50
2023-02-03T10:19:41.892Z,163.12
2023-02-03T10:20:42.058Z,157.50
2023-02-03T10:21:42.244Z,129.38
2023-02-03T10:22:42.310Z,151.88
2023-02-03T10:23:42.401Z,146.25
2023-02-03T10:24:42.558Z,129.38
2023-02-03T10:25:42.798Z,112.50
2023-02-03T10:26:42.772Z,112.50
2023-02-03T10:27:43.019Z,90.00
2023-02-03T10:28:43.061Z,112.50
2023-02-03T10:29:43.179Z,101.25
2023-02-03T10:30:43.354Z,123.75
2023-02-03T10:31:43.451Z,112.50
2023-02-03T10:32:45.081Z,101.25
2023-02-03T10:33:43.635Z,112.50
2023-02-03T10:34:43.739Z,118.12
2023-02-03T10:35:43.840Z,112.50
2023-02-03T10:36:44.028Z,106.88
2023-02-03T10:37:44.196Z,95.62
2023-02-03T10:38:44.338Z,106.88
2023-02-03T10:39:44.327Z,112.50
2023-02-03T10:40:44.492Z,112.50
2023-02-03T10:41:44.570Z,129.38
2023-02-03T10:42:44.637Z,140.62
2023-02-03T10:43:44.752Z,106.88
2023-02-03T10:44:44.829Z,118.12
2023-02-03T10:45:44.990Z,151.88
2023-02-03T10:46:45.187Z,157.50
2023-02-03T10:47:45.194Z,151.88
2023-02-03T10:48:45.346Z,140.62
2023-02-03T10:49:45.505Z,140.62
2023-02-03T10:50:45.636Z,174.38
2023-02-03T10:51:45.891Z,174.38
2023-02-03T10:52:45.946Z,191.25
2023-02-03T10:53:45.943Z,213.75
2023-02-03T10:54:46.051Z,208.12
2023-02-03T10:55:46.151Z,225.00
2023-02-03T10:56:46.470Z,208.12
2023-02-03T10:57:46.345Z,225.00
2023-02-03T10:58:46.564Z,236.25
2023-02-03T10:59:46.602Z,286.88
2023-02-03T11:00:46.705Z,354.38
2023-02-03T11:01:46.913Z,298.12
2023-02-03T11:02:46.987Z,298.12
2023-02-03T11:03:47.103Z,286.88
2023-02-03T11:04:47.219Z,219.38
2023-02-03T11:05:47.270Z,236.25
2023-02-03T11:06:47.363Z,270.00
2023-02-03T11:07:47.503Z,230.62
2023-02-03T11:08:47.702Z,275.62
2023-02-03T11:09:47.750Z,281.25
2023-02-03T11:10:47.850Z,298.12
2023-02-03T11:11:48.120Z,331.88
2023-02-03T11:12:48.145Z,337.50
2023-02-03T11:13:48.212Z,298.12
2023-02-03T11:14:48.384Z,281.25
2023-02-03T11:15:48.438Z,241.88
2023-02-03T11:16:48.535Z,225.00
2023-02-03T11:17:48.629Z,281.25
2023-02-03T11:18:48.775Z,230.62
2023-02-03T11:19:48.992Z,236.25
2023-02-03T11:20:49.028Z,230.62
2023-02-03T11:21:49.185Z,241.88
2023-02-03T11:22:49.283Z,241.88
2023-02-03T11:23:49.459Z,196.88
2023-02-03T11:24:49.596Z,168.75
2023-02-03T11:25:49.698Z,151.88
2023-02-03T11:26:49.790Z,180.00
2023-02-03T11:27:49.976Z,196.88
2023-02-03T11:28:50.059Z,185.62
2023-02-03T11:29:50.215Z,202.50
2023-02-03T11:30:50.302Z,168.75
2023-02-03T11:31:50.484Z,196.88
2023-02-03T11:32:50.510Z,185.62
2023-02-03T11:33:50.619Z,168.75
2023-02-03T11:34:50.736Z,185.62
2023-02-03T11:35:50.837Z,174.38
2023-02-03T11:36:50.924Z,163.12
2023-02-03T11:37:51.203Z,168.75
2023-02-03T11:38:51.203Z,157.50
2023-02-03T11:39:51.332Z,146.25
2023-02-03T11:40:51.428Z,185.62
2023-02-03T11:41:51.522Z,163.12
2023-02-03T11:42:51.735Z,219.38
2023-02-03T11:43:51.779Z,225.00
2023-02-03T11:44:51.891Z,264.38
2023-02-03T11:45:51.988Z,270.00
2023-02-03T11:46:52.132Z,258.75
2023-02-03T11:47:52.263Z,236.25
2023-02-03T11:48:52.293Z,196.88
2023-02-03T11:49:52.553Z,191.25
2023-02-03T11:50:52.593Z,146.25
2023-02-03T11:51:52.692Z,146.25
2023-02-03T11:52:52.778Z,157.50
2023-02-03T11:53:57.170Z,168.75
2023-02-03T11:54:53.082Z,196.88
2023-02-03T11:55:53.081Z,202.50
2023-02-03T11:56:53.188Z,225.00
2023-02-03T11:57:53.297Z,208.12
2023-02-03T11:58:53.403Z,168.75
2023-02-03T11:59:53.513Z,163.12
2023-02-03T12:00:53.606Z,146.25
2023-02-03T12:01:53.698Z,157.50
2023-02-03T12:02:53.836Z,157.50
2023-02-03T12:03:53.953Z,174.38
2023-02-03T12:04:54.086Z,146.25
2023-02-03T12:05:54.176Z,163.12
2023-02-03T12:06:54.281Z,151.88
2023-02-03T12:07:54.379Z,163.12
2023-02-03T12:08:54.531Z,151.88
2023-02-03T12:09:54.626Z,146.25
2023-02-03T12:10:54.736Z,129.38
2023-02-03T12:11:54.824Z,123.75
2023-02-03T12:12:54.949Z,129.38
2023-02-03T12:13:55.718Z,123.75
2023-02-03T12:14:55.203Z,106.88
2023-02-03T12:15:55.329Z,106.88
2023-02-03T12:16:55.405Z,112.50
2023-02-03T12:17:55.588Z,106.88
2023-02-03T12:18:55.638Z,112.50
2023-02-03T12:19:55.724Z,112.50
2023-02-03T12:20:55.823Z,106.88
2023-02-03T12:21:55.979Z,106.88
2023-02-03T12:22:56.102Z,101.25
2023-02-03T12:23:56.188Z,95.62
2023-02-03T12:24:56.291Z,106.88
2023-02-03T12:25:56.416Z,112.50
2023-02-03T12:26:56.540Z,118.12
2023-02-03T12:27:56.674Z,101.25
2023-02-03T12:28:56.714Z,101.25
2023-02-03T12:29:56.892Z,101.25
2023-02-03T12:30:56.968Z,95.62
2023-02-03T12:31:57.096Z,95.62
2023-02-03T12:32:57.189Z,90.00
2023-02-03T12:33:57.289Z,95.62
2023-02-03T12:34:57.494Z,95.62
2023-02-03T12:35:57.550Z,106.88
2023-02-03T12:36:57.673Z,90.00
2023-02-03T12:37:57.770Z,95.62
2023-02-03T12:38:57.879Z,101.25
2023-02-03T12:39:58.129Z,95.62
2023-02-03T12:40:58.077Z,106.88
2023-02-03T12:41:58.177Z,101.25
2023-02-03T12:42:58.280Z,95.62
2023-02-03T12:43:58.366Z,84.38
2023-02-03T12:44:58.704Z,95.62
2023-02-03T12:45:58.724Z,84.38
2023-02-03T12:46:58.745Z,90.00
2023-02-03T12:47:58.887Z,78.75
2023-02-03T12:48:59.053Z,84.38
2023-02-03T12:49:59.239Z,101.25
2023-02-03T12:50:59.235Z,67.50
2023-02-03T12:51:59.420Z,73.12
2023-02-03T12:52:59.473Z,73.12
2023-02-03T12:53:59.622Z,73.12
2023-02-03T12:54:59.664Z,67.50
2023-02-03T12:55:59.776Z,67.50
2023-02-03T12:56:59.996Z,73.12
2023-02-03T12:58:00.084Z,84.38
2023-02-03T12:59:00.134Z,73.12
2023-02-03T13:00:00.245Z,78.75
2023-02-03T13:01:00.449Z,78.75
2023-02-03T13:02:00.571Z,78.75